EZY92QC EHAM-EGCC
Flight info
| Callsign | EZY92QC |
|---|---|
| Flight time | 0h 49m |
| Altitude | 34000 |
| Route | BERGI L60 OTBED |
| Aircraft | A320/M-SDE2E3FGHIJ1RWXYZ/LB1 |
Departure
| Time | 2026-05-01 13:18 |
|---|---|
| Airport | Amsterdam Airport Schiphol (EHAM) |
Arrival
| Time | 2026-05-01 14:08 |
|---|---|
| Airport | Manchester Airport (EGCC) |
| Time | Latitude | Longitude | Altitude | Speed | Heading |
|---|---|---|---|---|---|
| 2026-05-01 12:47 | 52.31071 | 4.75567 | -1 ft | 0 kts | 148° |
| 2026-05-01 13:09 | 52.31072 | 4.75566 | -1 ft | 2 kts | 148° |
| 2026-05-01 13:09 | 52.31094 | 4.75546 | -1 ft | 4 kts | 147° |
| 2026-05-01 13:09 | 52.31109 | 4.75525 | -1 ft | 4 kts | 81° |
| 2026-05-01 13:10 | 52.31100 | 4.75492 | -1 ft | 4 kts | 54° |
| 2026-05-01 13:10 | 52.31092 | 4.75471 | -1 ft | 1 kts | 58° |
| 2026-05-01 13:12 | 52.31094 | 4.75477 | -1 ft | 2 kts | 53° |
| 2026-05-01 13:12 | 52.31128 | 4.75495 | -1 ft | 7 kts | 5° |
| 2026-05-01 13:12 | 52.31193 | 4.75493 | -1 ft | 11 kts | 357° |
| 2026-05-01 13:13 | 52.31280 | 4.75485 | -1 ft | 13 kts | 357° |
| 2026-05-01 13:13 | 52.31370 | 4.75476 | -1 ft | 13 kts | 356° |
| 2026-05-01 13:13 | 52.31454 | 4.75469 | -1 ft | 12 kts | 357° |
| 2026-05-01 13:13 | 52.31512 | 4.75521 | -1 ft | 11 kts | 74° |
| 2026-05-01 13:14 | 52.31519 | 4.75668 | -1 ft | 14 kts | 87° |
| 2026-05-01 13:14 | 52.31525 | 4.75840 | -1 ft | 16 kts | 86° |
| 2026-05-01 13:14 | 52.31531 | 4.76021 | -1 ft | 16 kts | 86° |
| 2026-05-01 13:14 | 52.31537 | 4.76204 | -1 ft | 16 kts | 87° |
| 2026-05-01 13:15 | 52.31543 | 4.76381 | -1 ft | 16 kts | 86° |
| 2026-05-01 13:15 | 52.31550 | 4.76572 | -1 ft | 18 kts | 87° |
| 2026-05-01 13:15 | 52.31557 | 4.76773 | -1 ft | 16 kts | 86° |
| 2026-05-01 13:15 | 52.31563 | 4.76957 | -1 ft | 17 kts | 86° |
| 2026-05-01 13:16 | 52.31570 | 4.77155 | -1 ft | 17 kts | 87° |
| 2026-05-01 13:16 | 52.31575 | 4.77342 | -1 ft | 17 kts | 87° |
| 2026-05-01 13:16 | 52.31583 | 4.77544 | -1 ft | 19 kts | 87° |
| 2026-05-01 13:17 | 52.31587 | 4.77954 | 0 ft | 6 kts | 137° |
| 2026-05-01 13:17 | 52.31547 | 4.77963 | 1 ft | 6 kts | 182° |
| 2026-05-01 13:18 | 52.30794 | 4.77893 | -4 ft | 117 kts | 183° |
| 2026-05-01 13:18 | 52.29813 | 4.77804 | 71 ft | 158 kts | 181° |
| 2026-05-01 13:18 | 52.28703 | 4.77709 | 722 ft | 163 kts | 176° |
| 2026-05-01 13:18 | 52.27532 | 4.78095 | 1133 ft | 185 kts | 166° |
| 2026-05-01 13:19 | 52.26209 | 4.78674 | 1559 ft | 207 kts | 165° |
| 2026-05-01 13:19 | 52.24752 | 4.79340 | 2150 ft | 226 kts | 164° |
| 2026-05-01 13:19 | 52.21706 | 4.80598 | 4126 ft | 221 kts | 179° |
| 2026-05-01 13:20 | 52.20260 | 4.79904 | 5106 ft | 222 kts | 215° |
| 2026-05-01 13:20 | 52.19377 | 4.77805 | 5879 ft | 239 kts | 251° |
| 2026-05-01 13:20 | 52.19305 | 4.74979 | 6425 ft | 264 kts | 272° |
| 2026-05-01 13:21 | 52.20018 | 4.69927 | 7604 ft | 282 kts | 282° |
| 2026-05-01 13:21 | 52.20574 | 4.66831 | 8389 ft | 287 kts | 282° |
| 2026-05-01 13:21 | 52.21121 | 4.63688 | 9217 ft | 290 kts | 281° |
| 2026-05-01 13:21 | 52.21647 | 4.60486 | 10047 ft | 296 kts | 283° |
| 2026-05-01 13:22 | 52.22478 | 4.57347 | 10641 ft | 312 kts | 297° |
| 2026-05-01 13:22 | 52.23845 | 4.54424 | 10904 ft | 339 kts | 313° |
| 2026-05-01 13:22 | 52.25775 | 4.52072 | 11404 ft | 353 kts | 328° |
| 2026-05-01 13:22 | 52.27899 | 4.49987 | 12088 ft | 359 kts | 327° |
| 2026-05-01 13:23 | 52.30048 | 4.47851 | 12801 ft | 364 kts | 327° |
| 2026-05-01 13:23 | 52.32220 | 4.45681 | 13508 ft | 368 kts | 327° |
| 2026-05-01 13:23 | 52.34460 | 4.43587 | 14164 ft | 374 kts | 334° |
| 2026-05-01 13:23 | 52.36924 | 4.42149 | 14770 ft | 378 kts | 347° |
| 2026-05-01 13:24 | 52.39529 | 4.41502 | 15398 ft | 381 kts | 355° |
| 2026-05-01 13:24 | 52.42178 | 4.41104 | 16039 ft | 383 kts | 355° |
| 2026-05-01 13:24 | 52.44844 | 4.40695 | 16679 ft | 387 kts | 355° |
| 2026-05-01 13:25 | 52.50247 | 4.39841 | 17931 ft | 393 kts | 355° |
| 2026-05-01 13:25 | 52.52980 | 4.39403 | 18543 ft | 396 kts | 355° |
| 2026-05-01 13:25 | 52.55733 | 4.38961 | 19080 ft | 399 kts | 355° |
| 2026-05-01 13:25 | 52.58505 | 4.38518 | 19637 ft | 401 kts | 354° |
| 2026-05-01 13:26 | 52.61293 | 4.38071 | 20198 ft | 403 kts | 354° |
| 2026-05-01 13:26 | 52.64089 | 4.37623 | 20753 ft | 405 kts | 354° |
| 2026-05-01 13:26 | 52.66900 | 4.37172 | 21296 ft | 407 kts | 354° |
| 2026-05-01 13:26 | 52.69638 | 4.36265 | 21803 ft | 408 kts | 340° |
| 2026-05-01 13:27 | 52.72214 | 4.34304 | 22318 ft | 408 kts | 326° |
| 2026-05-01 13:27 | 52.74440 | 4.31416 | 22834 ft | 408 kts | 313° |
| 2026-05-01 13:27 | 52.77383 | 4.23550 | 23825 ft | 405 kts | 286° |
| 2026-05-01 13:28 | 52.79162 | 4.14673 | 24643 ft | 409 kts | 286° |
| 2026-05-01 13:28 | 52.80060 | 4.10198 | 25046 ft | 411 kts | 286° |
| 2026-05-01 13:29 | 52.81866 | 4.01188 | 25840 ft | 415 kts | 285° |
| 2026-05-01 13:29 | 52.83689 | 3.92060 | 26572 ft | 420 kts | 285° |
| 2026-05-01 13:30 | 52.87362 | 3.73504 | 28062 ft | 428 kts | 285° |
| 2026-05-01 13:31 | 52.89202 | 3.64085 | 28788 ft | 432 kts | 285° |
| 2026-05-01 13:31 | 52.91990 | 3.49794 | 29821 ft | 438 kts | 285° |
| 2026-05-01 13:32 | 52.93870 | 3.40110 | 30400 ft | 443 kts | 285° |
| 2026-05-01 13:33 | 52.96703 | 3.25430 | 31199 ft | 448 kts | 285° |
| 2026-05-01 13:33 | 52.98589 | 3.15578 | 31838 ft | 447 kts | 285° |
| 2026-05-01 13:34 | 53.00456 | 3.05772 | 32601 ft | 444 kts | 285° |
| 2026-05-01 13:34 | 53.02299 | 2.96069 | 33308 ft | 443 kts | 284° |
| 2026-05-01 13:35 | 53.04140 | 2.86322 | 34023 ft | 441 kts | 284° |
| 2026-05-01 13:35 | 53.05052 | 2.81458 | 34211 ft | 440 kts | 284° |
| 2026-05-01 13:35 | 53.06836 | 2.71913 | 34235 ft | 428 kts | 284° |
| 2026-05-01 13:36 | 53.07715 | 2.67198 | 34233 ft | 427 kts | 284° |
| 2026-05-01 13:36 | 53.10324 | 2.53068 | 34245 ft | 426 kts | 283° |
| 2026-05-01 13:37 | 53.11426 | 2.43460 | 34225 ft | 422 kts | 274° |
| 2026-05-01 13:37 | 53.12223 | 2.33773 | 34223 ft | 422 kts | 274° |
| 2026-05-01 13:38 | 53.13406 | 2.19251 | 34211 ft | 422 kts | 274° |
| 2026-05-01 13:39 | 53.14191 | 2.09570 | 34207 ft | 422 kts | 274° |
| 2026-05-01 13:39 | 53.14956 | 1.99894 | 34210 ft | 422 kts | 273° |
| 2026-05-01 13:40 | 53.15709 | 1.90202 | 34200 ft | 422 kts | 273° |
| 2026-05-01 13:40 | 53.16461 | 1.80498 | 34191 ft | 422 kts | 273° |
| 2026-05-01 13:41 | 53.17208 | 1.70792 | 34190 ft | 422 kts | 273° |
| 2026-05-01 13:41 | 53.17946 | 1.61141 | 34179 ft | 423 kts | 273° |
| 2026-05-01 13:42 | 53.18678 | 1.51417 | 34199 ft | 423 kts | 272° |
| 2026-05-01 13:42 | 53.19399 | 1.41686 | 34181 ft | 423 kts | 272° |
| 2026-05-01 13:43 | 53.20115 | 1.31948 | 34177 ft | 423 kts | 272° |
| 2026-05-01 13:43 | 53.20822 | 1.22196 | 34165 ft | 423 kts | 272° |
| 2026-05-01 13:44 | 53.21524 | 1.12448 | 34165 ft | 423 kts | 272° |
| 2026-05-01 13:44 | 53.22216 | 1.02691 | 34165 ft | 423 kts | 272° |
| 2026-05-01 13:45 | 53.22900 | 0.92922 | 34171 ft | 424 kts | 271° |
| 2026-05-01 13:45 | 53.23577 | 0.83151 | 34166 ft | 424 kts | 271° |
| 2026-05-01 13:46 | 53.24246 | 0.73366 | 34153 ft | 424 kts | 271° |
| 2026-05-01 13:46 | 53.24909 | 0.63585 | 34152 ft | 424 kts | 271° |
| 2026-05-01 13:47 | 53.25561 | 0.53797 | 34156 ft | 424 kts | 271° |
| 2026-05-01 13:47 | 53.25884 | 0.48868 | 33927 ft | 432 kts | 271° |
| 2026-05-01 13:47 | 53.26209 | 0.43848 | 33376 ft | 436 kts | 271° |
| 2026-05-01 13:47 | 53.26537 | 0.38798 | 32837 ft | 439 kts | 271° |
| 2026-05-01 13:48 | 53.26865 | 0.33724 | 32314 ft | 440 kts | 271° |
| 2026-05-01 13:48 | 53.27193 | 0.28637 | 31798 ft | 441 kts | 271° |
| 2026-05-01 13:48 | 53.27521 | 0.23543 | 31292 ft | 440 kts | 271° |
| 2026-05-01 13:48 | 53.27844 | 0.18488 | 30790 ft | 437 kts | 270° |
| 2026-05-01 13:49 | 53.28161 | 0.13459 | 30302 ft | 433 kts | 270° |
| 2026-05-01 13:49 | 53.28472 | 0.08474 | 29732 ft | 430 kts | 271° |
| 2026-05-01 13:49 | 53.29042 | 0.03548 | 29177 ft | 433 kts | 280° |
| 2026-05-01 13:49 | 53.30085 | -0.01186 | 28665 ft | 436 kts | 290° |
| 2026-05-01 13:50 | 53.31424 | -0.05728 | 28186 ft | 433 kts | 291° |
| 2026-05-01 13:50 | 53.32753 | -0.10229 | 27711 ft | 430 kts | 291° |
| 2026-05-01 13:50 | 53.34069 | -0.14708 | 27236 ft | 427 kts | 291° |
| 2026-05-01 13:50 | 53.35366 | -0.19155 | 26777 ft | 424 kts | 291° |
| 2026-05-01 13:51 | 53.36650 | -0.23584 | 26283 ft | 421 kts | 290° |
| 2026-05-01 13:51 | 53.37923 | -0.27988 | 25785 ft | 418 kts | 290° |
| 2026-05-01 13:51 | 53.39185 | -0.32357 | 25303 ft | 416 kts | 290° |
| 2026-05-01 13:51 | 53.40439 | -0.36707 | 24826 ft | 413 kts | 290° |
| 2026-05-01 13:52 | 53.41686 | -0.41032 | 24347 ft | 410 kts | 290° |
| 2026-05-01 13:52 | 53.42907 | -0.45268 | 23881 ft | 408 kts | 290° |
| 2026-05-01 13:52 | 53.44153 | -0.49597 | 23367 ft | 406 kts | 290° |
| 2026-05-01 13:52 | 53.45373 | -0.53843 | 22839 ft | 403 kts | 290° |
| 2026-05-01 13:53 | 53.46565 | -0.58008 | 22313 ft | 400 kts | 290° |
| 2026-05-01 13:53 | 53.48953 | -0.66374 | 21270 ft | 394 kts | 290° |
| 2026-05-01 13:53 | 53.50134 | -0.70514 | 20759 ft | 392 kts | 290° |
| 2026-05-01 13:54 | 53.51307 | -0.74636 | 20264 ft | 390 kts | 290° |
| 2026-05-01 13:54 | 53.52470 | -0.78734 | 19777 ft | 388 kts | 290° |
| 2026-05-01 13:54 | 53.53627 | -0.82813 | 19295 ft | 386 kts | 290° |
| 2026-05-01 13:54 | 53.54775 | -0.86871 | 18821 ft | 384 kts | 290° |
| 2026-05-01 13:55 | 53.55918 | -0.90914 | 18330 ft | 382 kts | 291° |
| 2026-05-01 13:55 | 53.57053 | -0.94938 | 17803 ft | 380 kts | 291° |
| 2026-05-01 13:55 | 53.58179 | -0.98953 | 17281 ft | 378 kts | 291° |
| 2026-05-01 13:55 | 53.59288 | -1.02911 | 17105 ft | 371 kts | 291° |
| 2026-05-01 13:56 | 53.60381 | -1.06836 | 17133 ft | 370 kts | 288° |
| 2026-05-01 13:56 | 53.61173 | -1.10915 | 17132 ft | 364 kts | 278° |
| 2026-05-01 13:56 | 53.61609 | -1.15093 | 17132 ft | 358 kts | 266° |
| 2026-05-01 13:56 | 53.61521 | -1.19266 | 16722 ft | 358 kts | 261° |
| 2026-05-01 13:57 | 53.61335 | -1.23414 | 16067 ft | 352 kts | 261° |
| 2026-05-01 13:57 | 53.61205 | -1.26174 | 15617 ft | 349 kts | 261° |
| 2026-05-01 13:57 | 53.60953 | -1.31498 | 14741 ft | 339 kts | 261° |
| 2026-05-01 13:57 | 53.60768 | -1.35421 | 14098 ft | 333 kts | 261° |
| 2026-05-01 13:58 | 53.60583 | -1.39321 | 13388 ft | 327 kts | 261° |
| 2026-05-01 13:58 | 53.60399 | -1.43110 | 12690 ft | 322 kts | 261° |
| 2026-05-01 13:58 | 53.60211 | -1.46819 | 12055 ft | 315 kts | 261° |
| 2026-05-01 13:58 | 53.60019 | -1.50460 | 11430 ft | 309 kts | 261° |
| 2026-05-01 13:59 | 53.59824 | -1.53992 | 11029 ft | 297 kts | 261° |
| 2026-05-01 13:59 | 53.59631 | -1.57446 | 10670 ft | 296 kts | 261° |
| 2026-05-01 13:59 | 53.59445 | -1.60885 | 10313 ft | 295 kts | 261° |
| 2026-05-01 13:59 | 53.59265 | -1.64237 | 9939 ft | 288 kts | 261° |
| 2026-05-01 14:00 | 53.59079 | -1.67564 | 9495 ft | 284 kts | 261° |
| 2026-05-01 14:00 | 53.58890 | -1.70848 | 9049 ft | 280 kts | 261° |
| 2026-05-01 14:00 | 53.58704 | -1.74106 | 8616 ft | 279 kts | 261° |
| 2026-05-01 14:00 | 53.58497 | -1.77342 | 8184 ft | 276 kts | 256° |
| 2026-05-01 14:01 | 53.57861 | -1.80323 | 7757 ft | 268 kts | 236° |
| 2026-05-01 14:01 | 53.56753 | -1.82806 | 7284 ft | 267 kts | 229° |
| 2026-05-01 14:01 | 53.55574 | -1.85288 | 6581 ft | 275 kts | 230° |
| 2026-05-01 14:01 | 53.54386 | -1.87795 | 5948 ft | 270 kts | 230° |
| 2026-05-01 14:02 | 53.53248 | -1.90195 | 5564 ft | 255 kts | 229° |
| 2026-05-01 14:02 | 53.52171 | -1.92457 | 5223 ft | 241 kts | 229° |
| 2026-05-01 14:02 | 53.51150 | -1.94602 | 4913 ft | 230 kts | 229° |
| 2026-05-01 14:02 | 53.50158 | -1.96683 | 4606 ft | 228 kts | 229° |
| 2026-05-01 14:03 | 53.49169 | -1.98754 | 4297 ft | 226 kts | 229° |
| 2026-05-01 14:03 | 53.48188 | -2.00807 | 3992 ft | 225 kts | 230° |
| 2026-05-01 14:03 | 53.47214 | -2.02847 | 3703 ft | 224 kts | 229° |
| 2026-05-01 14:03 | 53.46237 | -2.04888 | 3409 ft | 225 kts | 230° |
| 2026-05-01 14:04 | 53.45258 | -2.06934 | 3132 ft | 225 kts | 230° |
| 2026-05-01 14:04 | 53.44284 | -2.08969 | 2816 ft | 219 kts | 230° |
| 2026-05-01 14:04 | 53.43354 | -2.10910 | 2527 ft | 208 kts | 230° |
| 2026-05-01 14:04 | 53.42764 | -2.12139 | 2353 ft | 201 kts | 230° |
| 2026-05-01 14:05 | 53.41630 | -2.14500 | 2065 ft | 185 kts | 230° |
| 2026-05-01 14:05 | 53.40859 | -2.16115 | 1884 ft | 172 kts | 231° |
| 2026-05-01 14:05 | 53.40137 | -2.17670 | 1641 ft | 166 kts | 231° |
| 2026-05-01 14:05 | 53.39443 | -2.19132 | 1458 ft | 152 kts | 230° |
| 2026-05-01 14:06 | 53.38782 | -2.20486 | 1251 ft | 150 kts | 230° |
| 2026-05-01 14:06 | 53.38131 | -2.21820 | 991 ft | 145 kts | 231° |
| 2026-05-01 14:06 | 53.37504 | -2.23095 | 750 ft | 139 kts | 232° |
| 2026-05-01 14:06 | 53.36897 | -2.24345 | 564 ft | 138 kts | 232° |
| 2026-05-01 14:07 | 53.36294 | -2.25596 | 359 ft | 137 kts | 233° |
| 2026-05-01 14:07 | 53.35707 | -2.26805 | 272 ft | 125 kts | 232° |
| 2026-05-01 14:07 | 53.35258 | -2.27739 | 238 ft | 66 kts | 231° |
| 2026-05-01 14:08 | 53.34976 | -2.28393 | 233 ft | 32 kts | 251° |
| 2026-05-01 14:08 | 53.34944 | -2.28680 | 228 ft | 13 kts | 277° |
| 2026-05-01 14:08 | 53.35018 | -2.28727 | 227 ft | 14 kts | 34° |
| 2026-05-01 14:08 | 53.35091 | -2.28592 | 230 ft | 11 kts | 51° |
| 2026-05-01 14:09 | 53.35140 | -2.28490 | 227 ft | 12 kts | 51° |
| 2026-05-01 14:09 | 53.35172 | -2.28423 | 228 ft | 9 kts | 51° |
| 2026-05-01 14:09 | 53.35202 | -2.28361 | 231 ft | 4 kts | 51° |
| 2026-05-01 14:09 | 53.35208 | -2.28349 | 231 ft | 0 kts | 51° |
| 2026-05-01 14:10 | 53.35215 | -2.28333 | 232 ft | 6 kts | 51° |
| 2026-05-01 14:10 | 53.35286 | -2.28230 | 232 ft | 18 kts | 32° |
| 2026-05-01 14:10 | 53.35395 | -2.28166 | 236 ft | 15 kts | 8° |
| 2026-05-01 14:11 | 53.35500 | -2.28119 | 234 ft | 16 kts | 29° |
| 2026-05-01 14:11 | 53.35626 | -2.27908 | 241 ft | 9 kts | 34° |
| 2026-05-01 14:11 | 53.35678 | -2.27886 | 243 ft | 6 kts | 5° |
| 2026-05-01 14:12 | 53.35718 | -2.27879 | 246 ft | 5 kts | 6° |
| 2026-05-01 14:12 | 53.35749 | -2.27873 | 247 ft | 4 kts | 6° |
| 2026-05-01 14:12 | 53.35763 | -2.27871 | 248 ft | 0 kts | 5° |
| 2026-05-01 14:19 | 53.35790 | -2.27866 | 249 ft | 8 kts | 6° |
| 2026-05-01 14:20 | 53.35870 | -2.27852 | 254 ft | 15 kts | 6° |
| 2026-05-01 14:20 | 53.36096 | -2.28053 | 255 ft | 21 kts | 318° |
| 2026-05-01 14:20 | 53.36178 | -2.28151 | 255 ft | 12 kts | 356° |
| 2026-05-01 14:21 | 53.36262 | -2.28150 | 255 ft | 13 kts | 329° |
| 2026-05-01 14:21 | 53.36333 | -2.28265 | 255 ft | 16 kts | 315° |
| 2026-05-01 14:21 | 53.36403 | -2.28407 | 255 ft | 15 kts | 293° |
| 2026-05-01 14:22 | 53.36558 | -2.28724 | 255 ft | 19 kts | 311° |
| 2026-05-01 14:22 | 53.36631 | -2.28893 | 255 ft | 17 kts | 315° |
| 2026-05-01 14:22 | 53.36716 | -2.29034 | 255 ft | 16 kts | 315° |
| 2026-05-01 14:22 | 53.36801 | -2.29054 | 255 ft | 14 kts | 18° |
| 2026-05-01 14:23 | 53.36886 | -2.28954 | 255 ft | 16 kts | 45° |
| 2026-05-01 14:23 | 53.36962 | -2.28827 | 255 ft | 9 kts | 45° |
| 2026-05-01 14:23 | 53.36982 | -2.28785 | 255 ft | 3 kts | 69° |
| 2026-05-01 14:23 | 53.36965 | -2.28726 | 255 ft | 6 kts | 133° |
| 2026-05-01 14:24 | 53.36951 | -2.28703 | 255 ft | 1 kts | 134° |
| 2026-05-01 14:24 | 53.36948 | -2.28696 | 255 ft | 0 kts | 134° |